createdAt,value
2019-06-07T00:11:15.551Z,16.1
2019-06-07T00:26:28.545Z,16.5
2019-06-07T00:41:45.260Z,16.4
2019-06-07T00:56:50.350Z,16.3
2019-06-07T01:12:20.112Z,16.3
2019-06-07T01:27:35.175Z,16.3
2019-06-07T01:42:52.210Z,16
2019-06-07T01:58:08.196Z,15.8
2019-06-07T02:13:21.516Z,15.7
2019-06-07T02:28:45.423Z,15.5
2019-06-07T02:43:57.342Z,15.4
2019-06-07T02:59:13.482Z,15.3
2019-06-07T03:14:20.272Z,15.4
2019-06-07T03:29:45.870Z,15.2
2019-06-07T03:45:02.061Z,15
2019-06-07T04:00:18.098Z,15
2019-06-07T04:15:37.857Z,15.1
2019-06-07T04:30:49.365Z,15.6
2019-06-07T04:46:06.842Z,15.8
2019-06-07T05:01:27.094Z,15.9
2019-06-07T05:16:43.278Z,16
2019-06-07T05:31:52.403Z,16
2019-06-07T05:47:12.873Z,16
2019-06-07T06:02:29.802Z,16.7
2019-06-07T06:17:49.875Z,16.8
2019-06-07T06:33:03.440Z,16.8
2019-06-07T06:48:20.425Z,17.3
2019-06-07T07:03:57.085Z,17.6
2019-06-07T07:19:29.259Z,18.2
2019-06-07T07:35:00.885Z,18.5
2019-06-07T07:50:27.541Z,18.8
2019-06-07T08:05:46.958Z,18.9
2019-06-07T08:21:21.065Z,19
2019-06-07T08:37:06.021Z,19
2019-06-07T08:52:36.443Z,19.6
2019-06-07T09:08:16.000Z,19.8
2019-06-07T09:23:41.362Z,20.3
2019-06-07T09:39:13.416Z,21.1
2019-06-07T09:55:10.451Z,22
2019-06-07T10:11:05.259Z,22.8
2019-06-07T10:26:25.105Z,23
2019-06-07T10:41:45.062Z,23.2
2019-06-07T10:56:57.146Z,23
2019-06-07T11:12:25.565Z,23.1
2019-06-07T11:27:46.449Z,23.1
2019-06-07T11:43:08.555Z,23.2
2019-06-07T11:58:30.099Z,23.5
2019-06-07T12:13:39.900Z,23.7
2019-06-07T12:29:13.030Z,24.1
2019-06-07T12:44:36.499Z,24.6
2019-06-07T12:59:59.575Z,24.8
2019-06-07T13:15:25.428Z,25.5
2019-06-07T13:30:47.376Z,25.8
2019-06-07T13:46:00.385Z,26.1
2019-06-07T14:01:34.542Z,26
2019-06-07T14:17:00.378Z,26.8
2019-06-07T14:32:26.227Z,27
2019-06-07T14:47:50.132Z,26.9
2019-06-07T15:03:14.567Z,27
2019-06-07T15:18:25.773Z,27.8
2019-06-07T15:34:01.100Z,28.5
2019-06-07T15:49:30.267Z,28
2019-06-07T16:04:53.348Z,28.1
2019-06-07T16:20:16.817Z,27.7
2019-06-07T16:35:18.824Z,27.5
2019-06-07T16:50:53.461Z,27.1
2019-06-07T17:06:27.174Z,26.8
2019-06-07T17:21:50.106Z,26.6
2019-06-07T17:37:12.757Z,26.2
2019-06-07T17:52:36.843Z,25.7
2019-06-07T18:07:43.375Z,25.5
2019-06-07T18:23:15.741Z,25.1
2019-06-07T18:38:41.450Z,24.9
2019-06-07T18:54:03.379Z,24.6
2019-06-07T19:09:23.601Z,24.3
2019-06-07T19:24:27.431Z,24.1
2019-06-07T19:40:00.220Z,23.8
2019-06-07T19:55:23.980Z,23.2
2019-06-07T20:10:44.526Z,22.7
2019-06-07T20:26:02.806Z,22.3
2019-06-07T20:41:09.239Z,22.1
2019-06-07T20:56:40.913Z,21.8
2019-06-07T21:11:59.923Z,21.5
2019-06-07T21:27:18.762Z,21.8
2019-06-07T21:42:37.681Z,21.5
2019-06-07T21:57:48.628Z,21.4
2019-06-07T22:13:15.380Z,21.1
2019-06-07T22:28:33.823Z,20.4
2019-06-07T22:43:52.103Z,20.7
2019-06-07T22:58:53.800Z,20.6
2019-06-07T23:13:23.189Z,20.5
2019-06-07T23:28:50.541Z,20.4
2019-06-07T23:44:08.846Z,20.3
2019-06-07T23:59:27.412Z,20.1
